FW9444 Weather Reports


Display with metric or nautical units.
time (UTC)temp
F
wind
direction
speed
MPH
gust
MPH
rain 1hr
in
rain 24hr
in
rain mn
in
humidity
%
barometer
mb
20210921064131 71 169 0.0 1.0 0.00 0.05 0.05 99 1013.1
20210921063628 71 194 3.0 5.0 0.00 0.05 0.05 99 1013.2
20210921063127 71 184 1.0 2.0 0.00 0.05 0.05 99 1013.2
20210921062626 72 214 1.0 1.0 0.04 0.05 0.05 99 1013.0
20210921062123 72 196 0.0 0.0 0.35 0.05 0.05 98 1012.9
20210921061623 72 199 2.0 3.0 0.30 0.05 0.05 97 1012.8
20210921061121 72 170 1.0 1.0 0.00 0.00 0.00 96 1013.2
20210921060620 72 179 1.0 3.0 0.00 0.00 0.00 96 1013.0
20210921060117 72 187 0.0 0.0 0.00 0.00 0.00 96 1013.1
20210921055615 72 140 2.0 2.0 0.00 0.00 0.00 95 1013.0
20210921055114 72 181 2.0 5.0 0.00 0.00 0.00 95 1013.1
20210921054613 72 179 1.0 1.0 0.00 0.00 0.00 95 1013.1
20210921054111 72 187 0.0 0.0 0.00 0.00 0.00 95 1013.1
20210921053610 72 205 0.0 0.0 0.00 0.00 0.00 95 1013.0
20210921053108 72 177 0.0 0.0 0.00 0.00 0.00 95 1013.1
20210921052607 72 172 0.0 2.0 0.00 0.00 0.00 95 1013.2
20210921052105 72 222 1.0 1.0 0.00 0.00 0.00 95 1013.0
20210921051605 72 153 1.0 1.0 0.00 0.00 0.00 95 1012.8
20210921051104 72 136 2.0 2.0 0.00 0.00 0.00 95 1012.9
20210921050602 72 203 0.0 1.0 0.00 0.00 0.00 95 1013.1
20210921050100 72 163 2.0 2.0 0.00 0.00 0.00 95 1013.1
20210921045559 72 118 0.0 1.0 0.00 0.61 0.61 95 1013.1
20210921045057 72 90 2.0 5.0 0.00 0.61 0.61 95 1013.0
20210921044557 72 134 2.0 2.0 0.00 0.61 0.61 95 1013.3
20210921044055 72 127 0.0 1.0 0.00 0.61 0.61 95 1013.0
20210921043553 72 146 3.0 7.0 0.00 0.61 0.61 95 1012.8
20210921043047 72 126 1.0 1.0 0.00 0.61 0.61 95 1012.9
20210921042547 72 209 0.0 1.0 0.00 0.61 0.61 95 1013.3
20210921042045 72 163 1.0 1.0 0.00 0.61 0.61 95 1013.2
20210921041543 72 178 1.0 1.0 0.00 0.61 0.61 94 1013.1
20210921041040 72 193 2.0 3.0 0.00 0.61 0.61 94 1013.1
20210921040540 72 177 0.0 1.0 0.00 0.61 0.61 94 1013.0
20210921040038 72 184 0.0 0.0 0.00 0.61 0.61 94 1013.2
20210921035537 72 126 0.0 0.0 0.00 0.61 0.61 94 1012.9
20210921035034 72 171 1.0 1.0 0.00 0.61 0.61 94 1013.2
20210921034532 72 197 2.0 3.0 0.00 0.61 0.61 94 1012.8
20210921034031 72 142 2.0 2.0 0.00 0.61 0.61 94 1012.9
20210921033531 72 163 1.0 1.0 0.00 0.61 0.61 94 1012.8
20210921033029 72 108 2.0 5.0 0.00 0.61 0.61 94 1012.9
20210921032528 72 202 4.0 6.0 0.00 0.61 0.61 93 1013.0
20210921032026 72 146 1.0 2.0 0.00 0.61 0.61 93 1013.1
20210921031524 72 124 3.0 5.0 0.00 0.61 0.61 93 1013.1
20210921031023 72 216 1.0 2.0 0.00 0.61 0.61 93 1013.4
20210921030521 72 233 1.0 2.0 0.00 0.61 0.61 93 1013.1
20210921030020 71 175 4.0 6.0 0.00 0.61 0.61 93 1013.3
20210921025518 72 187 2.0 6.0 0.00 0.61 0.61 93 1013.3
20210921025016 72 188 1.0 1.0 0.00 0.61 0.61 93 1013.3
20210921024516 72 76 1.0 1.0 0.00 0.61 0.61 93 1013.5
20210921024014 72 243 0.0 1.0 0.00 0.61 0.61 93 1013.2
20210921023512 72 203 1.0 1.0 0.00 0.61 0.61 93 1013.2
20210921023010 72 103 3.0 3.0 0.00 0.61 0.61 93 1013.3
20210921022509 72 97 1.0 1.0 0.00 0.61 0.61 93 1013.4
20210921022009 72 172 2.0 2.0 0.00 0.61 0.61 92 1013.4
20210921021507 72 85 1.0 2.0 0.00 0.61 0.61 92 1013.5
20210921020959 72 98 2.0 2.0 0.00 0.61 0.61 92 1013.3
20210921020455 72 130 0.0 1.0 0.00 0.61 0.61 92 1013.3
20210921015955 72 154 3.0 3.0 0.00 0.61 0.61 92 1013.6
20210921015455 72 169 0.0 1.0 0.00 0.61 0.61 92 1013.4
20210921014954 72 92 2.0 3.0 0.00 0.61 0.61 92 1013.5
20210921014453 71 50 1.0 2.0 0.00 0.61 0.61 92 1013.3
20210921013951 71 151 1.0 2.0 0.00 0.61 0.61 92 1013.3
20210921013449 71 94 2.0 2.0 0.00 0.61 0.61 93 1013.5
20210921012947 71 122 0.0 1.0 0.00 0.61 0.61 93 1013.5
20210921012446 71 152 0.0 0.0 0.00 0.61 0.61 92 1013.2
20210921011945 71 126 0.0 0.0 0.00 0.61 0.61 93 1013.6
20210921011444 71 146 2.0 3.0 0.00 0.61 0.61 92 1013.4
20210921010942 71 108 3.0 3.0 0.00 0.61 0.61 92 1013.1
20210921010441 71 144 0.0 1.0 0.00 0.61 0.61 92 1013.1
20210921005940 71 138 2.0 2.0 0.00 0.61 0.61 92 1013.0
20210921005434 71 159 1.0 1.0 0.00 0.61 0.61 92 1013.0
20210921004935 71 142 3.0 5.0 0.00 0.61 0.61 92 1013.1
20210921004433 71 111 5.0 6.0 0.00 0.61 0.61 92 1013.1
20210921003932 72 125 1.0 1.0 0.00 0.61 0.61 92 1013.1
20210921003429 72 130 0.0 1.0 0.00 0.61 0.61 92 1013.1
20210921002927 72 130 1.0 1.0 0.00 0.61 0.61 92 1013.1
20210921002427 72 78 2.0 2.0 0.00 0.61 0.61 92 1012.9
20210921001927 72 141 3.0 5.0 0.00 0.61 0.61 91 1012.9
20210921001425 72 77 2.0 3.0 0.00 0.61 0.61 91 1012.5
20210921000924 72 165 1.0 3.0 0.00 0.61 0.61 92 1012.8
20210921000424 72 162 1.0 2.0 0.00 0.61 0.61 92 1012.7
20210920235920 72 76 1.0 1.0 0.00 0.61 0.61 92 1012.7
20210920235420 72 149 4.0 5.0 0.00 0.61 0.61 91 1012.7
20210920234917 72 31 1.0 3.0 0.00 0.61 0.61 92 1012.7
20210920234417 72 103 0.0 0.0 0.00 0.61 0.61 92 1012.6
20210920233916 72 203 1.0 2.0 0.00 0.61 0.61 91 1012.7
20210920233414 72 78 3.0 3.0 0.00 0.61 0.61 91 1012.6
20210920232907 73 159 3.0 3.0 0.00 0.61 0.61 91 1012.5
20210920232406 73 97 1.0 1.0 0.00 0.61 0.61 91 1012.2
20210920231905 73 21 5.0 7.0 0.00 0.61 0.61 90 1012.3
20210920231404 73 105 2.0 3.0 0.00 0.61 0.61 90 1012.1
20210920230905 74 161 4.0 5.0 0.00 0.61 0.61 89 1012.2
20210920230403 74 156 1.0 2.0 0.00 0.61 0.61 88 1012.5
20210920225901 74 142 1.0 1.0 0.00 0.61 0.61 89 1012.5
20210920225400 75 203 3.0 5.0 0.00 0.61 0.61 87 1012.5
20210920224858 75 112 1.0 2.0 0.00 0.61 0.61 87 1012.6
20210920224356 74 93 0.0 1.0 0.00 0.61 0.61 89 1012.8
20210920223856 74 130 2.0 3.0 0.00 0.61 0.61 89 1012.7
20210920223351 74 84 1.0 2.0 0.00 0.61 0.61 89 1012.6
20210920222849 75 85 3.0 5.0 0.00 0.61 0.61 88 1012.6
20210920222347 75 172 3.0 6.0 0.00 0.61 0.61 87 1012.5
20210920221846 75 116 2.0 2.0 0.00 0.61 0.61 87 1012.5
20210920221343 75 139 1.0 2.0 0.00 0.61 0.61 87 1012.5
20210920220843 75 81 1.0 2.0 0.00 0.61 0.61 88 1012.4
20210920220341 75 133 3.0 5.0 0.00 0.61 0.61 88 1012.5
20210920215840 76 167 0.0 1.0 0.00 0.61 0.61 88 1012.2
20210920215340 76 110 0.0 1.0 0.00 0.61 0.61 88 1012.3
20210920214835 76 5 3.0 5.0 0.00 0.61 0.61 87 1012.4
20210920214334 76 143 1.0 2.0 0.00 0.61 0.61 87 1012.3
20210920213833 76 104 1.0 1.0 0.00 0.61 0.61 87 1012.1
20210920213332 77 95 2.0 3.0 0.00 0.61 0.61 87 1012.1
20210920212830 77 165 2.0 2.0 0.00 0.61 0.61 88 1012.1
20210920212327 78 101 1.0 1.0 0.00 0.61 0.61 87 1011.9
20210920211827 78 118 1.0 1.0 0.00 0.61 0.61 87 1012.0
20210920211325 77 153 3.0 5.0 0.00 0.61 0.61 87 1011.9
20210920210823 77 135 1.0 1.0 0.00 0.61 0.61 88 1011.9
20210920210323 77 156 1.0 2.0 0.00 0.61 0.61 88 1011.9
20210920205820 79 162 4.0 5.0 0.00 0.61 0.61 85 1011.9
20210920205318 79 142 1.0 3.0 0.00 0.61 0.61 87 1011.7
20210920204815 80 132 5.0 6.0 0.00 0.61 0.61 86 1011.8
20210920204315 80 217 4.0 9.0 0.00 0.61 0.61 88 1011.9
20210920203811 80 111 3.0 5.0 0.00 0.61 0.61 86 1012.0
20210920203310 81 115 2.0 5.0 0.00 0.61 0.61 82 1011.6
20210920202805 82 154 4.0 6.0 0.00 0.61 0.61 81 1011.9
20210920202306 81 124 1.0 2.0 0.00 0.61 0.61 82 1011.8
20210920201804 79 218 4.0 6.0 0.00 0.61 0.61 82 1012.1
20210920201303 79 111 3.0 3.0 0.00 0.61 0.61 82 1012.0
20210920200802 80 151 0.0 1.0 0.00 0.61 0.61 81 1012.1
20210920200302 82 183 2.0 3.0 0.00 0.61 0.61 80 1012.0
20210920195801 82 154 1.0 1.0 0.00 0.61 0.61 79 1012.0
20210920195258 84 139 4.0 6.0 0.00 0.61 0.61 77 1012.1
20210920194752 85 108 1.0 2.0 0.00 0.61 0.61 78 1012.1
20210920194249 84 180 0.0 1.0 0.00 0.61 0.61 76 1012.3
20210920193748 84 142 4.0 6.0 0.00 0.61 0.61 78 1012.1
20210920193248 82 189 1.0 2.0 0.00 0.61 0.61 84 1012.0
20210920192747 81 151 1.0 2.0 0.00 0.61 0.61 84 1012.4
20210920192245 81 150 0.0 1.0 0.00 0.61 0.61 84 1012.4
20210920191743 83 178 2.0 3.0 0.00 0.61 0.61 81 1012.3
20210920191242 82 87 0.0 1.0 0.00 0.61 0.61 83 1012.6
20210920190741 80 109 1.0 2.0 0.00 0.61 0.61 84 1012.6
20210920190240 80 116 1.0 2.0 0.00 0.61 0.61 84 1012.5
20210920185739 82 95 0.0 1.0 0.00 0.61 0.61 83 1012.7
20210920185237 82 150 2.0 3.0 0.00 0.61 0.61 84 1012.8
20210920184734 82 152 0.0 1.0 0.00 0.61 0.61 85 1012.8
20210920184233 82 220 0.0 0.0 0.00 0.61 0.61 86 1012.7
20210920183731 81 140 2.0 2.0 0.00 0.61 0.61 86 1012.9
20210920183230 79 87 0.0 0.0 0.00 0.61 0.61 91 1013.1
20210920182729 80 149 1.0 2.0 0.00 0.61 0.61 88 1013.2
20210920182227 81 180 0.0 0.0 0.00 0.61 0.61 84 1013.1
20210920181727 81 141 1.0 2.0 0.00 0.61 0.61 83 1013.2
20210920181221 81 210 4.0 6.0 0.00 0.61 0.61 82 1013.4
20210920180720 81 155 1.0 2.0 0.00 0.61 0.61 82 1013.3
20210920180217 82 123 0.0 1.0 0.00 0.61 0.61 84 1013.4
20210920175718 81 137 2.0 2.0 0.00 0.61 0.61 82 1013.5
20210920175216 82 106 0.0 0.0 0.00 0.61 0.61 85 1013.4
20210920174715 82 318 0.0 1.0 0.00 0.61 0.61 81 1013.5
20210920174212 81 144 1.0 2.0 0.00 0.61 0.61 83 1013.5
20210920173711 81 138 2.0 2.0 0.00 0.61 0.61 85 1013.3
20210920173210 80 195 2.0 5.0 0.00 0.61 0.61 83 1013.7
20210920172709 80 155 2.0 2.0 0.00 0.61 0.61 86 1013.7
20210920172207 79 149 1.0 1.0 0.00 0.61 0.61 87 1013.5
20210920171707 80 109 1.0 1.0 0.00 0.61 0.61 86 1013.8
20210920171207 80 51 2.0 2.0 0.00 0.61 0.61 86 1013.7
20210920170705 81 148 3.0 6.0 0.00 0.61 0.61 83 1013.7
20210920170204 79 45 1.0 1.0 0.00 0.61 0.61 85 1013.8
20210920165704 79 306 2.0 2.0 0.00 0.61 0.61 86 1013.8
20210920165203 78 137 0.0 1.0 0.00 0.61 0.61 89 1013.7
20210920164701 77 147 1.0 1.0 0.00 0.61 0.61 90 1013.7
20210920164200 77 132 0.0 1.0 0.00 0.61 0.61 90 1013.9
20210920163700 78 153 2.0 2.0 0.00 0.61 0.61 90 1013.9
20210920163159 78 117 0.0 1.0 0.00 0.61 0.61 89 1014.2
20210920162658 77 137 1.0 2.0 0.00 0.61 0.61 90 1014.2
20210920162156 77 130 3.0 5.0 0.00 0.61 0.61 90 1013.8
20210920161655 78 54 1.0 1.0 0.00 0.61 0.61 91 1013.8
20210920161153 77 178 0.0 0.0 0.00 0.61 0.61 90 1014.2
20210920160651 77 152 0.0 1.0 0.00 0.61 0.61 92 1014.1
20210920160150 77 188 2.0 2.0 0.00 0.61 0.61 92 1014.1
20210920155648 77 132 1.0 1.0 0.00 0.61 0.61 94 1014.2
20210920155147 76 129 1.0 2.0 0.00 0.61 0.61 93 1014.1
20210920154646 76 139 2.0 3.0 0.00 0.61 0.61 93 1014.2
20210920154145 76 196 1.0 2.0 0.00 0.61 0.61 93 1014.4
20210920153643 76 172 0.0 1.0 0.00 0.61 0.61 95 1014.2
20210920153142 75 232 1.0 2.0 0.00 0.61 0.61 96 1014.2
20210920152640 75 113 2.0 3.0 0.00 0.61 0.61 96 1014.3
20210920152139 75 169 2.0 2.0 0.00 0.61 0.61 96 1014.2
20210920151637 75 116 1.0 2.0 0.00 0.61 0.61 96 1014.5
20210920151136 75 133 2.0 2.0 0.00 0.61 0.61 95 1014.4
20210920150634 75 209 3.0 3.0 0.00 0.61 0.61 96 1014.4
20210920150133 75 163 0.0 1.0 0.00 0.61 0.61 97 1014.3
20210920145632 74 95 0.0 1.0 0.00 0.61 0.61 98 1014.5
20210920145132 74 162 4.0 7.0 0.00 0.61 0.61 97 1014.1
20210920144630 74 158 2.0 2.0 0.00 0.61 0.61 98 1014.0
20210920144129 73 177 1.0 1.0 0.00 0.61 0.61 98 1014.2
20210920143626 74 217 1.0 1.0 0.00 0.61 0.61 99 1014.0
20210920143125 74 195 0.0 1.0 0.00 0.61 0.61 99 1014.1
20210920142624 74 167 0.0 0.0 0.00 0.61 0.61 99 1014.1
20210920142122 74 169 0.0 0.0 0.00 0.61 0.61 99 1013.9
20210920141621 74 136 1.0 2.0 0.00 0.61 0.61 99 1014.0
20210920141118 73 138 2.0 2.0 0.00 0.61 0.61 99 1014.1
20210920140618 73 146 0.0 0.0 0.00 0.61 0.61 99 1014.0
20210920140117 73 156 0.0 0.0 0.00 0.61 0.61 99 1013.7
20210920135615 73 126 2.0 2.0 0.00 0.61 0.61 99 1013.7
20210920135115 73 206 0.0 0.0 0.00 0.61 0.61 99 1013.7
20210920134614 73 171 0.0 0.0 0.00 0.61 0.61 99 1013.6
20210920134113 72 94 2.0 2.0 0.00 0.61 0.61 99 1013.7
20210920133612 72 81 1.0 1.0 0.00 0.61 0.61 99 1013.5
20210920133110 72 141 2.0 3.0 0.00 0.61 0.61 99 1013.6
20210920132608 72 133 0.0 0.0 0.00 0.61 0.61 99 1013.6
20210920132107 72 166 1.0 2.0 0.00 0.61 0.61 99 1013.5
20210920131606 72 145 0.0 0.0 0.00 0.61 0.61 99 1013.6
20210920131101 71 151 2.0 2.0 0.00 0.61 0.61 99 1013.6
20210920130557 71 306 1.0 2.0 0.00 0.61 0.61 99 1013.5
20210920130057 71 184 0.0 0.0 0.07 0.61 0.61 99 1013.5
20210920125556 71 182 0.0 0.0 0.07 0.61 0.61 99 1013.4
20210920125054 71 177 0.0 1.0 0.00 0.60 0.60 99 1013.1
20210920124551 71 182 0.0 1.0 0.00 0.60 0.60 99 1013.2
20210920124051 71 174 0.0 0.0 0.00 0.60 0.60 99 1013.3
20210920123550 71 181 0.0 0.0 0.00 0.60 0.60 99 1013.2
20210920123050 71 164 0.0 1.0 0.00 0.60 0.60 99 1013.0
20210920122549 71 165 0.0 0.0 0.00 0.60 0.60 99 1013.2
20210920122043 71 176 0.0 1.0 0.00 0.60 0.60 99 1013.3
20210920121542 71 200 0.0 0.0 0.04 0.60 0.60 99 1013.3
20210920121043 71 243 1.0 2.0 0.16 0.60 0.60 99 1013.1
20210920120541 71 177 0.0 0.0 0.23 0.59 0.59 99 1013.1
20210920120036 71 176 1.0 1.0 0.42 0.57 0.57 99 1013.1
20210920115536 71 169 2.0 3.0 0.66 0.56 0.56 99 1013.0
20210920115034 71 187 0.0 0.0 0.85 0.52 0.52 99 1013.0
20210920114532 71 189 0.0 0.0 1.08 0.44 0.44 99 1013.0
20210920114032 71 193 1.0 2.0 1.08 0.35 0.35 99 1013.1
20210920113532 71 200 1.0 1.0 0.73 0.26 0.26 99 1013.0
20210920113030 71 190 1.0 1.0 0.28 0.17 0.17 99 1013.1
20210920112528 71 183 0.0 0.0 0.11 0.13 0.13 99 1013.0
20210920112026 71 183 0.0 0.0 0.07 0.13 0.13 99 1012.7
20210920111525 71 188 1.0 1.0 0.07 0.11 0.11 99 1012.8
20210920111025 71 178 0.0 1.0 0.07 0.11 0.11 99 1012.7
20210920110522 71 186 0.0 0.0 0.00 0.10 0.10 99 1012.7
20210920110021 71 177 0.0 0.0 0.00 0.10 0.10 99 1012.7
20210920105520 71 182 0.0 0.0 0.00 0.10 0.10 99 1012.8
20210920105015 71 187 0.0 0.0 0.00 0.10 0.10 99 1012.5
20210920104513 71 187 0.0 0.0 0.00 0.10 0.10 99 1012.5
20210920104011 71 304 0.0 0.0 0.00 0.10 0.10 99 1012.3
20210920103508 71 199 0.0 0.0 0.00 0.10 0.10 99 1012.5
20210920103008 71 172 0.0 0.0 0.00 0.10 0.10 99 1012.4
20210920102508 71 172 0.0 0.0 0.00 0.10 0.10 99 1012.6
20210920102006 71 171 0.0 1.0 0.00 0.10 0.10 99 1012.7
20210920101506 71 171 0.0 0.0 0.00 0.10 0.10 99 1012.4
20210920101005 71 171 0.0 0.0 0.00 0.10 0.10 99 1012.5
20210920100504 71 171 0.0 0.0 0.00 0.10 0.10 99 1012.5
20210920100002 71 171 0.0 0.0 0.00 0.10 0.10 99 1012.5
20210920095501 71 171 0.0 0.0 0.00 0.10 0.10 99 1012.6
20210920094958 71 171 0.0 0.0 0.00 0.10 0.10 99 1012.5
20210920094457 71 171 0.0 0.0 0.00 0.10 0.10 99 1012.5
20210920093957 71 171 0.0 0.0 0.00 0.10 0.10 99 1012.3
20210920093454 71 171 0.0 0.0 0.00 0.10 0.10 99 1012.3
20210920092949 71 171 0.0 0.0 0.00 0.10 0.10 99 1012.2
20210920092439 71 172 0.0 0.0 0.00 0.10 0.10 99 1012.3
20210920091938 71 172 1.0 1.0 0.00 0.10 0.10 99 1012.4
20210920091436 71 171 1.0 2.0 0.04 0.10 0.10 99 1012.5
20210920090929 71 173 0.0 0.0 0.28 0.10 0.10 99 1012.5
20210920090428 71 175 1.0 1.0 0.35 0.09 0.09 99 1012.3
20210920085927 71 181 0.0 1.0 0.16 0.06 0.06 99 1012.5
20210920085426 71 174 0.0 0.0 0.11 0.03 0.03 99 1012.6
20210920084925 72 149 0.0 1.0 0.04 0.02 0.02 99 1012.5
20210920084421 72 160 0.0 1.0 0.00 0.02 0.02 99 1012.4
20210920083905 72 161 1.0 1.0 0.07 0.02 0.02 99 1012.6
20210920083402 72 162 1.0 2.0 0.07 0.02 0.02 99 1012.7
20210920082857 72 162 0.0 1.0 0.04 0.00 0.00 99 1012.5
20210920082356 72 164 0.0 1.0 0.04 0.00 0.00 99 1012.8
20210920081855 72 165 2.0 2.0 0.00 0.00 0.00 99 1012.8
20210920081353 72 171 0.0 0.0 0.00 0.00 0.00 99 1012.5
20210920080853 72 170 0.0 0.0 0.00 0.00 0.00 99 1012.9
20210920080352 72 176 1.0 1.0 0.00 0.00 0.00 99 1012.8
20210920075851 72 175 1.0 1.0 0.00 0.00 0.00 99 1012.9
20210920075351 72 189 0.0 0.0 0.00 0.00 0.00 99 1012.8
20210920074850 72 161 0.0 0.0 0.00 0.00 0.00 99 1012.9
20210920074348 72 161 0.0 0.0 0.00 0.00 0.00 99 1012.9
20210920073846 72 165 1.0 2.0 0.00 0.00 0.00 99 1012.9
20210920073342 72 168 0.0 0.0 0.00 0.00 0.00 99 1013.0
20210920072841 72 170 0.0 0.0 0.00 0.00 0.00 99 1013.2
20210920072339 72 165 0.0 0.0 0.00 0.00 0.00 99 1013.1
20210920071839 72 165 0.0 0.0 0.00 0.00 0.00 99 1013.0
20210920071339 72 167 0.0 0.0 0.00 0.00 0.00 99 1013.2
20210920070838 72 167 3.0 3.0 0.00 0.00 0.00 99 1013.3
20210920070336 72 173 0.0 0.0 0.00 0.00 0.00 99 1013.2
20210920065835 72 173 2.0 3.0 0.00 0.00 0.00 99 1013.5
20210920065334 72 173 0.0 0.0 0.00 0.00 0.00 99 1013.3
20210920064831 72 173 0.0 0.0 0.00 0.00 0.00 99 1013.2